logo
Search for airport 
image banner adimage banner adimage banner ad
image banner ad

SBMQ - Macapá / Alberto Alcolumbre

Located in Macapá / Alberto Alcolumbre, Brazil

ICAO - SBMQ, IATA - MCP

Data provided by Airmate  

General information

Coordinates: N0°3'3" W51°4'13"
Elevation is 56 feet MSL.
Magnetic variation is -19.0° East
View others Airports in Amapá

Operational data

Special qualification required
Current time UTC:
Current local time:
Weather
METAR: SBMQ 191600Z 11011KT 9999 SCT025 33/24 Q1011
TAF: TAF SBMQ 190916Z 1912/2012 03003KT 8000 SCT016 TX32/1918Z TN26/2009Z BECMG 1912/1914 10007KT BECMG 1915/1917 SCT025 FEW035TCU BECMG 1922/2001 07005KT SCT016 TEMPO 2003/2011 36005KT 6000 BKN007 RMK PHC
View NOTAMs / SUP AIP / TFR affecting this airport [VIEW]
Communications frequencies: [VIEW]

Runways:

RWY identifierQFULength (ft)Width (ft)SurfaceLDA (ft)
0857°2220300ASPH
26237°2220300ASPH

Airport contact information

Address: Macapá / Alberto Alcolumbre Brazil

Satellite view of SBMQ